Ava Foss — WDF5779 — position and weather

sailwx.info

Track history (hours):
 
Tides and Currents Weather Stations Pressure Air Temp Water Temp Dewpoint Dewpoint Depression Visibility Wind Speed Wind Dir Waves Ship Positions

Ava Foss

Owner: Foss Maritime Company, Seattle, WA. More information available from US FCC via Universal Licensing System and Coast Guard Vessel Documentation Center.

Last reported at 2015-Jul-06 10:03 UTC. Time now 2015-Jul-06 11:21 UTC.
Position N 33°53' W 118°26'.

Length 10 m; draft 2.5 m.

Type: Passenger vessel. MMSI: 367467120.

Date/timePositionNaut miles runAvg speedWind from/ knotsBaromVisibWave heightAir tempDewpointWater temp
2015-Jul-06 10:03N 33°53' W 118°26'0 0.0
2015-Jul-05 23:25N 33°53' W 118°26'3 0.5
2015-Jul-05 17:33N 33°51' W 118°24'2 0.9
2015-Jul-05 15:03N 33°52' W 118°26'3 0.2
2015-Jul-04 20:28N 33°55' W 118°27'4 4.6
2015-Jul-04 19:34N 33°51' W 118°24'1 1.2
2015-Jul-04 18:33N 33°51' W 118°24'0 0.0
2015-Jul-04 17:12N 33°51' W 118°24'0 0.0
2015-Jul-04 16:33N 33°51' W 118°24'5 3.6
2015-Jul-04 15:06N 33°55' W 118°27'5 0.4
2015-Jul-04 03:16N 33°51' W 118°24'0 0.0
2015-Jul-04 01:31N 33°51' W 118°24'0 0.0
2015-Jul-04 00:29N 33°51' W 118°24'0 0.0
2015-Jul-03 23:32N 33°51' W 118°24'0 0.0
2015-Jul-03 22:33N 33°51' W 118°24'0 0.0
2015-Jul-03 20:30N 33°51' W 118°24'0 0.1
2015-Jul-03 19:19N 33°51' W 118°24'0 0.2
2015-Jul-03 18:33N 33°50' W 118°24'0 0.2
2015-Jul-03 17:31N 33°51' W 118°24'0 0.0
2015-Jul-03 16:30N 33°51' W 118°24'5 2.4
2015-Jul-03 14:20N 33°54' W 118°28'5 6.7
2015-Jul-03 13:33N 33°51' W 118°24'5 4.5
2015-Jul-03 12:27N 33°54' W 118°27'5 0.7
2015-Jul-03 05:29N 33°51' W 118°24'0 0.0
2015-Jul-03 03:09N 33°51' W 118°24'6 8.6
2015-Jul-03 02:27N 33°54' W 118°29'6 6.5
2015-Jul-03 01:32N 33°51' W 118°24'3 2.8
2015-Jul-03 00:32N 33°52' W 118°26'3 2.2
2015-Jul-02 23:22N 33°51' W 118°24'6 5.9
2015-Jul-02 22:24N 33°54' W 118°29'0 0.3
2015-Jul-02 21:32N 33°54' W 118°29'6 5.5
2015-Jul-02 20:29N 33°51' W 118°24'1 1.3
2015-Jul-02 19:33N 33°51' W 118°25'1 1.2
2015-Jul-02 18:33N 33°51' W 118°24'4 3.3
2015-Jul-02 17:22N 33°51' W 118°28'4 4.2
2015-Jul-02 16:27N 33°51' W 118°24'0 0.0
2015-Jul-02 15:33N 33°51' W 118°24'0 0.0
2015-Jul-02 08:30N 33°51' W 118°24'0 0.0
2015-Jul-02 07:33N 33°51' W 118°24'5 5.0
2015-Jul-02 06:33N 33°54' W 118°27'5 3.7
2015-Jul-02 05:13N 33°51' W 118°24'5 4.9
2015-Jul-02 04:08N 33°55' W 118°27'5 8.6
2015-Jul-02 03:32N 33°51' W 118°24'0 0.0
2015-Jul-02 02:09N 33°51' W 118°24'4 6.6
2015-Jul-02 01:33N 33°54' W 118°26'4 3.3
2015-Jul-02 00:23N 33°51' W 118°24'0 0.0
2015-Jul-01 23:32N 33°51' W 118°24'0 0.0
2015-Jul-01 21:11N 33°51' W 118°24'0 0.0
2015-Jul-01 20:32N 33°51' W 118°24'5 2.5
2015-Jul-01 18:33N 33°54' W 118°27'5 2.4
2015-Jul-01 16:33N 33°51' W 118°24'0 0.0
2015-Jul-01 15:30N 33°51' W 118°24'0 0.0
2015-Jul-01 14:30N 33°51' W 118°24'5 1.3
2015-Jul-01 10:33N 33°55' W 118°27'5 0.7
2015-Jul-01 03:22N 33°51' W 118°24'0 0.5
2015-Jul-01 02:34N 33°51' W 118°24'0 0.1
2015-Jul-01 00:05N 33°51' W 118°24'0 0.1
2015-Jun-30 23:10N 33°51' W 118°24'4 3.8
2015-Jun-30 22:11N 33°54' W 118°26'4 1.8
2015-Jun-30 20:03N 33°50' W 118°24'0 0.1
2015-Jun-30 19:28N 33°51' W 118°24'5 5.4
2015-Jun-30 18:30N 33°55' W 118°27'5 5.5
2015-Jun-30 17:33N 33°51' W 118°24'0 0.0
2015-Jun-30 16:30N 33°51' W 118°24'5 5.3
2015-Jun-30 15:29N 33°54' W 118°29'2 0.8
2015-Jun-30 13:17N 33°52' W 118°29'5 0.2
2015-Jun-29 16:03N 33°51' W 118°24'5 3.4
2015-Jun-29 14:28N 33°55' W 118°28'1 0.0
2015-Jun-28 20:30N 33°54' W 118°27'5 4.7
2015-Jun-28 19:28N 33°51' W 118°24'0 0.0
2015-Jun-28 18:19N 33°51' W 118°24'6 4.9
2015-Jun-28 17:09N 33°52' W 118°30'6 9.3
2015-Jun-28 16:33N 33°50' W 118°24'0 0.2
2015-Jun-28 15:33N 33°51' W 118°24'1 0.0
2015-Jun-26 22:33N 33°51' W 118°25'1 0.1
2015-Jun-26 13:09N 33°52' W 118°25'  
Track history (hours):
 
Tides and Currents Weather Stations Pressure Air Temp Water Temp Dewpoint Dewpoint Depression Visibility Wind Speed Wind Dir Waves Ship Positions

Ava Foss

Owner: Foss Maritime Company, Seattle, WA. More information available from US FCC via Universal Licensing System and Coast Guard Vessel Documentation Center.

Last reported at 2015-Jul-06 10:03 UTC. Time now 2015-Jul-06 11:21 UTC.
Position N 33°53' W 118°26'.

Length 10 m; draft 2.5 m.

Type: Passenger vessel. MMSI: 367467120.

Date/timePositionNaut miles runAvg speedWind from/ knotsBaromVisibWave heightAir tempDewpointWater temp
2015-Jul-06 10:03N 33°53' W 118°26'0 0.0
2015-Jul-05 23:25N 33°53' W 118°26'3 0.5
2015-Jul-05 17:33N 33°51' W 118°24'2 0.9
2015-Jul-05 15:03N 33°52' W 118°26'3 0.2
2015-Jul-04 20:28N 33°55' W 118°27'4 4.6
2015-Jul-04 19:34N 33°51' W 118°24'1 1.2
2015-Jul-04 18:33N 33°51' W 118°24'0 0.0
2015-Jul-04 17:12N 33°51' W 118°24'0 0.0
2015-Jul-04 16:33N 33°51' W 118°24'5 3.6
2015-Jul-04 15:06N 33°55' W 118°27'5 0.4
2015-Jul-04 03:16N 33°51' W 118°24'0 0.0
2015-Jul-04 01:31N 33°51' W 118°24'0 0.0
2015-Jul-04 00:29N 33°51' W 118°24'0 0.0
2015-Jul-03 23:32N 33°51' W 118°24'0 0.0
2015-Jul-03 22:33N 33°51' W 118°24'0 0.0
2015-Jul-03 20:30N 33°51' W 118°24'0 0.1
2015-Jul-03 19:19N 33°51' W 118°24'0 0.2
2015-Jul-03 18:33N 33°50' W 118°24'0 0.2
2015-Jul-03 17:31N 33°51' W 118°24'0 0.0
2015-Jul-03 16:30N 33°51' W 118°24'5 2.4
2015-Jul-03 14:20N 33°54' W 118°28'5 6.7
2015-Jul-03 13:33N 33°51' W 118°24'5 4.5
2015-Jul-03 12:27N 33°54' W 118°27'5 0.7
2015-Jul-03 05:29N 33°51' W 118°24'0 0.0
2015-Jul-03 03:09N 33°51' W 118°24'6 8.6
2015-Jul-03 02:27N 33°54' W 118°29'6 6.5
2015-Jul-03 01:32N 33°51' W 118°24'3 2.8
2015-Jul-03 00:32N 33°52' W 118°26'3 2.2
2015-Jul-02 23:22N 33°51' W 118°24'6 5.9
2015-Jul-02 22:24N 33°54' W 118°29'0 0.3
2015-Jul-02 21:32N 33°54' W 118°29'6 5.5
2015-Jul-02 20:29N 33°51' W 118°24'1 1.3
2015-Jul-02 19:33N 33°51' W 118°25'1 1.2
2015-Jul-02 18:33N 33°51' W 118°24'4 3.3
2015-Jul-02 17:22N 33°51' W 118°28'4 4.2
2015-Jul-02 16:27N 33°51' W 118°24'0 0.0
2015-Jul-02 15:33N 33°51' W 118°24'0 0.0
2015-Jul-02 08:30N 33°51' W 118°24'0 0.0
2015-Jul-02 07:33N 33°51' W 118°24'5 5.0
2015-Jul-02 06:33N 33°54' W 118°27'5 3.7
2015-Jul-02 05:13N 33°51' W 118°24'5 4.9
2015-Jul-02 04:08N 33°55' W 118°27'5 8.6
2015-Jul-02 03:32N 33°51' W 118°24'0 0.0
2015-Jul-02 02:09N 33°51' W 118°24'4 6.6
2015-Jul-02 01:33N 33°54' W 118°26'4 3.3
2015-Jul-02 00:23N 33°51' W 118°24'0 0.0
2015-Jul-01 23:32N 33°51' W 118°24'0 0.0
2015-Jul-01 21:11N 33°51' W 118°24'0 0.0
2015-Jul-01 20:32N 33°51' W 118°24'5 2.5
2015-Jul-01 18:33N 33°54' W 118°27'5 2.4
2015-Jul-01 16:33N 33°51' W 118°24'0 0.0
2015-Jul-01 15:30N 33°51' W 118°24'0 0.0
2015-Jul-01 14:30N 33°51' W 118°24'5 1.3
2015-Jul-01 10:33N 33°55' W 118°27'5 0.7
2015-Jul-01 03:22N 33°51' W 118°24'0 0.5
2015-Jul-01 02:34N 33°51' W 118°24'0 0.1
2015-Jul-01 00:05N 33°51' W 118°24'0 0.1
2015-Jun-30 23:10N 33°51' W 118°24'4 3.8
2015-Jun-30 22:11N 33°54' W 118°26'4 1.8
2015-Jun-30 20:03N 33°50' W 118°24'0 0.1
2015-Jun-30 19:28N 33°51' W 118°24'5 5.4
2015-Jun-30 18:30N 33°55' W 118°27'5 5.5
2015-Jun-30 17:33N 33°51' W 118°24'0 0.0
2015-Jun-30 16:30N 33°51' W 118°24'5 5.3
2015-Jun-30 15:29N 33°54' W 118°29'2 0.8
2015-Jun-30 13:17N 33°52' W 118°29'5 0.2
2015-Jun-29 16:03N 33°51' W 118°24'5 3.4
2015-Jun-29 14:28N 33°55' W 118°28'1 0.0
2015-Jun-28 20:30N 33°54' W 118°27'5 4.7
2015-Jun-28 19:28N 33°51' W 118°24'0 0.0
2015-Jun-28 18:19N 33°51' W 118°24'6 4.9
2015-Jun-28 17:09N 33°52' W 118°30'6 9.3
2015-Jun-28 16:33N 33°50' W 118°24'0 0.2
2015-Jun-28 15:33N 33°51' W 118°24'1 0.0
2015-Jun-26 22:33N 33°51' W 118°25'1 0.1
2015-Jun-26 13:09N 33°52' W 118°25'  

Dump ship's entire track history